createdAt,value
2022-07-31T00:00:15.349Z,4.37
2022-07-31T00:02:42.187Z,4.30
2022-07-31T00:05:09.560Z,4.10
2022-07-31T00:07:36.411Z,3.47
2022-07-31T00:10:04.953Z,3.37
2022-07-31T00:12:32.165Z,4.10
2022-07-31T00:14:58.913Z,3.13
2022-07-31T00:17:25.691Z,3.30
2022-07-31T00:19:52.588Z,3.20
2022-07-31T00:22:19.396Z,3.40
2022-07-31T00:24:46.112Z,2.63
2022-07-31T00:27:12.922Z,2.80
2022-07-31T00:29:42.499Z,3.33
2022-07-31T00:32:09.280Z,3.40
2022-07-31T00:34:35.979Z,2.93
2022-07-31T00:37:03.256Z,3.40
2022-07-31T00:39:31.066Z,3.20
2022-07-31T00:41:58.098Z,3.00
2022-07-31T00:44:25.205Z,3.50
2022-07-31T00:46:52.918Z,3.50
2022-07-31T00:49:20.409Z,3.17
2022-07-31T00:51:48.094Z,2.47
2022-07-31T00:54:22.702Z,3.13
2022-07-31T00:56:50.647Z,2.90
2022-07-31T00:59:24.283Z,3.50
2022-07-31T01:01:52.060Z,2.63
2022-07-31T01:04:19.867Z,2.60
2022-07-31T01:06:47.431Z,3.13
2022-07-31T01:09:15.269Z,3.43
2022-07-31T01:12:00.579Z,2.63
2022-07-31T01:14:32.901Z,1.70
2022-07-31T01:17:01.825Z,3.13
2022-07-31T01:19:42.765Z,3.30
2022-07-31T01:22:32.960Z,4.20
2022-07-31T01:25:07.414Z,2.80
2022-07-31T01:27:52.494Z,2.37
2022-07-31T01:30:26.621Z,3.30
2022-07-31T01:33:02.916Z,2.93
2022-07-31T01:35:35.656Z,3.80
2022-07-31T01:38:10.168Z,3.97
2022-07-31T01:40:47.331Z,3.57
2022-07-31T01:43:22.451Z,4.17
2022-07-31T01:45:54.738Z,4.07
2022-07-31T01:48:23.122Z,4.60
2022-07-31T01:50:53.970Z,3.83
2022-07-31T01:53:24.059Z,3.37
2022-07-31T01:56:02.106Z,3.67
2022-07-31T01:58:35.400Z,3.70
2022-07-31T02:01:04.809Z,4.17
2022-07-31T02:03:42.735Z,4.57
2022-07-31T02:06:12.998Z,3.87
2022-07-31T02:08:40.894Z,4.70
2022-07-31T02:11:09.103Z,4.60
2022-07-31T02:13:37.434Z,4.67
2022-07-31T02:16:05.692Z,5.07
2022-07-31T02:18:34.188Z,4.80
2022-07-31T02:21:01.104Z,4.23
2022-07-31T02:23:27.939Z,4.57
2022-07-31T02:25:54.902Z,4.00
2022-07-31T02:28:23.282Z,4.40
2022-07-31T02:30:51.776Z,4.00
2022-07-31T02:33:21.759Z,4.00
2022-07-31T02:35:50.348Z,4.70
2022-07-31T02:38:22.786Z,4.17
2022-07-31T02:40:58.856Z,4.20
2022-07-31T02:43:30.409Z,4.47
2022-07-31T02:45:58.716Z,4.87
2022-07-31T02:48:26.497Z,4.27
2022-07-31T02:50:53.703Z,5.10
2022-07-31T02:53:21.129Z,4.83
2022-07-31T02:55:49.528Z,5.33
2022-07-31T02:58:16.292Z,4.50
2022-07-31T03:00:43.262Z,5.57
2022-07-31T03:03:09.996Z,5.20
2022-07-31T03:05:36.678Z,5.30
2022-07-31T03:08:03.511Z,5.80
2022-07-31T03:10:30.358Z,5.07
2022-07-31T03:12:58.270Z,5.43
2022-07-31T03:15:27.111Z,5.53
2022-07-31T03:17:55.034Z,5.80
2022-07-31T03:20:22.425Z,6.80
2022-07-31T03:22:49.546Z,5.50
2022-07-31T03:25:21.744Z,5.40
2022-07-31T03:27:55.817Z,5.97
2022-07-31T03:30:27.635Z,5.23
2022-07-31T03:32:55.949Z,5.40
2022-07-31T03:35:24.790Z,4.73
2022-07-31T03:37:52.721Z,5.70
2022-07-31T03:40:20.259Z,5.27
2022-07-31T03:42:49.671Z,4.97
2022-07-31T03:45:17.477Z,5.17
2022-07-31T03:47:44.621Z,4.30
2022-07-31T03:50:11.520Z,4.87
2022-07-31T03:52:39.919Z,5.40
2022-07-31T03:55:08.287Z,5.20
2022-07-31T03:57:37.914Z,5.23
2022-07-31T04:00:07.406Z,6.40
2022-07-31T04:02:44.570Z,6.50
2022-07-31T04:05:11.522Z,5.73
2022-07-31T04:07:38.281Z,6.37
2022-07-31T04:10:05.481Z,6.27
2022-07-31T04:12:32.348Z,6.07
2022-07-31T04:14:59.190Z,6.57
2022-07-31T04:17:25.970Z,7.00
2022-07-31T04:19:53.073Z,6.70
2022-07-31T04:22:19.987Z,8.17
2022-07-31T04:24:46.715Z,7.97
2022-07-31T04:27:17.596Z,7.97
2022-07-31T04:29:45.462Z,8.60
2022-07-31T04:32:12.504Z,8.27
2022-07-31T04:34:39.772Z,8.40
2022-07-31T04:37:06.901Z,8.40
2022-07-31T04:39:34.368Z,8.80
2022-07-31T04:42:01.686Z,10.10
2022-07-31T04:44:28.695Z,9.90
2022-07-31T04:47:00.270Z,9.43
2022-07-31T04:49:27.295Z,11.00
2022-07-31T04:51:54.087Z,10.33
2022-07-31T04:54:20.859Z,11.07
2022-07-31T04:56:48.571Z,11.27
2022-07-31T04:59:20.187Z,10.50
2022-07-31T05:01:48.115Z,11.00
2022-07-31T05:04:15.015Z,11.03
2022-07-31T05:06:44.130Z,10.97
2022-07-31T05:09:18.417Z,10.07
2022-07-31T05:11:47.545Z,11.50
2022-07-31T05:14:16.633Z,10.67
2022-07-31T05:16:43.960Z,10.70
2022-07-31T05:19:14.889Z,9.70
2022-07-31T05:21:49.659Z,10.07
2022-07-31T05:24:22.525Z,10.30
2022-07-31T05:26:59.276Z,11.53
2022-07-31T05:29:26.912Z,10.80
2022-07-31T05:31:59.523Z,10.23
2022-07-31T05:34:30.173Z,11.57
2022-07-31T05:36:58.600Z,11.43
2022-07-31T05:39:26.088Z,11.53
2022-07-31T05:41:53.223Z,10.80
2022-07-31T05:44:19.999Z,11.07
2022-07-31T05:46:46.781Z,11.83
2022-07-31T05:49:13.692Z,11.73
2022-07-31T05:51:43.832Z,11.90
2022-07-31T05:54:10.950Z,10.67
2022-07-31T05:56:37.705Z,9.97
2022-07-31T05:59:04.581Z,11.03
2022-07-31T06:01:31.429Z,10.23
2022-07-31T06:03:58.788Z,9.77
2022-07-31T06:06:26.044Z,8.90
2022-07-31T06:08:53.007Z,9.70
2022-07-31T06:11:19.927Z,9.13
2022-07-31T06:13:47.378Z,8.83
2022-07-31T06:16:14.950Z,7.90
2022-07-31T06:18:42.739Z,8.10
2022-07-31T06:21:09.973Z,8.20
2022-07-31T06:23:37.362Z,7.47
2022-07-31T06:26:07.521Z,7.30
2022-07-31T06:28:47.913Z,7.27
2022-07-31T06:31:21.234Z,6.87
2022-07-31T06:33:48.877Z,7.23
2022-07-31T06:36:17.353Z,7.53
2022-07-31T06:38:44.263Z,6.63
2022-07-31T06:41:11.730Z,6.73
2022-07-31T06:43:38.674Z,6.73
2022-07-31T06:46:05.806Z,6.83
2022-07-31T06:48:32.499Z,6.57
2022-07-31T06:51:30.307Z,6.20
2022-07-31T06:53:47.278Z,6.07
2022-07-31T06:56:14.381Z,6.03
2022-07-31T06:58:41.155Z,6.03
2022-07-31T07:01:08.083Z,6.57
2022-07-31T07:03:35.573Z,6.97
2022-07-31T07:06:03.522Z,6.77
2022-07-31T07:08:30.317Z,7.83
2022-07-31T07:10:57.116Z,7.33
2022-07-31T07:13:24.231Z,7.17
2022-07-31T07:16:12.421Z,7.80
2022-07-31T07:18:39.248Z,8.10
2022-07-31T07:21:05.987Z,7.80
2022-07-31T07:23:33.919Z,8.27
2022-07-31T07:26:00.684Z,8.70
2022-07-31T07:28:30.691Z,8.07
2022-07-31T07:30:58.205Z,8.80
2022-07-31T07:33:41.767Z,8.30
2022-07-31T07:36:23.426Z,7.93
2022-07-31T07:38:55.128Z,7.90
2022-07-31T07:41:25.998Z,9.00
2022-07-31T07:43:53.962Z,9.07
2022-07-31T07:46:22.815Z,9.10
2022-07-31T07:48:51.035Z,9.70
2022-07-31T07:51:18.086Z,9.23
2022-07-31T07:53:44.882Z,9.87
2022-07-31T07:56:14.529Z,9.60
2022-07-31T07:58:41.293Z,9.13
2022-07-31T08:01:08.709Z,9.43
2022-07-31T08:03:50.185Z,9.27
2022-07-31T08:06:21.513Z,9.00
2022-07-31T08:08:50.268Z,8.97
2022-07-31T08:11:17.981Z,9.10
2022-07-31T08:13:50.259Z,8.83
2022-07-31T08:16:19.683Z,8.50
2022-07-31T08:18:46.441Z,9.27
2022-07-31T08:21:15.554Z,9.03
2022-07-31T08:23:42.371Z,9.30
2022-07-31T08:26:09.273Z,9.10
2022-07-31T08:28:36.817Z,8.73
2022-07-31T08:31:04.073Z,9.80
2022-07-31T08:33:33.003Z,9.20
2022-07-31T08:36:00.780Z,10.07
2022-07-31T08:38:28.827Z,10.27
2022-07-31T08:40:55.626Z,9.43
2022-07-31T08:44:02.436Z,10.50
2022-07-31T08:46:09.961Z,10.10
2022-07-31T08:48:40.745Z,9.90
2022-07-31T08:51:10.657Z,11.33
2022-07-31T08:53:38.961Z,11.30
2022-07-31T08:56:07.924Z,10.40
2022-07-31T08:58:39.078Z,10.97
2022-07-31T09:01:08.131Z,10.97
2022-07-31T09:03:39.220Z,11.23
2022-07-31T09:06:23.568Z,12.00
2022-07-31T09:08:50.482Z,12.53
2022-07-31T09:11:18.759Z,13.07
2022-07-31T09:14:02.838Z,11.53
2022-07-31T09:16:31.327Z,11.93
2022-07-31T09:19:54.023Z,11.80
2022-07-31T09:21:51.960Z,12.60
2022-07-31T09:24:29.459Z,12.47
2022-07-31T09:27:27.987Z,12.23
2022-07-31T09:29:56.866Z,13.00
2022-07-31T09:32:24.138Z,13.30
2022-07-31T09:34:50.878Z,13.63
2022-07-31T09:37:20.667Z,13.80
2022-07-31T09:39:55.502Z,13.33
2022-07-31T09:42:34.621Z,12.97
2022-07-31T09:45:03.035Z,12.80
2022-07-31T09:47:32.388Z,13.00
2022-07-31T09:50:01.688Z,13.37
2022-07-31T09:52:31.236Z,13.87
2022-07-31T09:55:15.905Z,12.53
2022-07-31T09:57:58.639Z,14.13
2022-07-31T10:00:28.324Z,13.10
2022-07-31T10:02:57.007Z,13.07
2022-07-31T10:05:25.888Z,12.27
2022-07-31T10:07:54.461Z,12.63
2022-07-31T10:10:23.543Z,12.53
2022-07-31T10:12:54.825Z,10.93
2022-07-31T10:15:24.018Z,12.55
2022-07-31T10:17:52.344Z,11.67
2022-07-31T10:20:23.557Z,10.90
2022-07-31T10:22:55.538Z,10.30
2022-07-31T10:25:31.624Z,9.57
2022-07-31T10:27:58.712Z,9.53
2022-07-31T10:30:28.400Z,8.80
2022-07-31T10:32:55.981Z,9.43
2022-07-31T10:35:22.872Z,8.50
2022-07-31T10:38:04.100Z,8.33
2022-07-31T10:40:45.391Z,8.20
2022-07-31T10:43:29.172Z,8.38
2022-07-31T10:45:56.878Z,8.47
2022-07-31T10:48:25.955Z,7.72
2022-07-31T10:51:04.794Z,8.00
2022-07-31T10:53:41.427Z,7.90
2022-07-31T10:56:18.008Z,6.87
2022-07-31T10:58:54.406Z,6.43
2022-07-31T11:01:21.794Z,6.80
2022-07-31T11:03:53.195Z,6.33
2022-07-31T11:06:21.592Z,5.88
2022-07-31T11:08:52.395Z,6.10
2022-07-31T11:13:58.207Z,6.40
2022-07-31T11:16:25.523Z,5.93
2022-07-31T11:19:07.043Z,4.63
2022-07-31T11:21:39.898Z,4.43
2022-07-31T11:24:26.891Z,3.80
2022-07-31T11:27:04.870Z,4.30
2022-07-31T11:30:01.674Z,4.13
2022-07-31T11:32:26.278Z,4.47
2022-07-31T11:34:56.219Z,4.50
2022-07-31T11:37:30.660Z,6.00
2022-07-31T11:40:14.560Z,5.05
2022-07-31T11:42:49.965Z,5.60
2022-07-31T11:45:23.145Z,4.95
2022-07-31T11:48:11.233Z,5.10
2022-07-31T11:50:45.004Z,4.75
2022-07-31T11:53:12.380Z,4.88
2022-07-31T11:55:53.957Z,4.38
2022-07-31T11:58:30.937Z,4.65
2022-07-31T12:01:04.696Z,5.30
2022-07-31T12:03:37.208Z,5.07
2022-07-31T12:06:06.303Z,4.72
2022-07-31T12:08:34.935Z,5.47
2022-07-31T12:11:09.144Z,5.40
2022-07-31T12:13:38.530Z,5.93
2022-07-31T12:16:12.053Z,5.72
2022-07-31T12:18:59.723Z,5.88
2022-07-31T12:21:41.405Z,5.57
2022-07-31T12:24:13.564Z,6.00
2022-07-31T12:26:48.869Z,5.80
2022-07-31T12:29:18.832Z,6.25
2022-07-31T12:34:44.167Z,6.22
2022-07-31T12:37:17.128Z,5.40
2022-07-31T12:40:00.989Z,5.13
2022-07-31T12:42:42.999Z,6.03
2022-07-31T12:45:18.447Z,5.03
2022-07-31T12:47:59.559Z,5.30
2022-07-31T12:50:30.984Z,4.55
2022-07-31T12:53:19.941Z,5.50
2022-07-31T12:55:46.932Z,4.78
2022-07-31T12:58:16.407Z,5.00
2022-07-31T13:00:43.160Z,5.50
2022-07-31T13:08:30.284Z,5.35
2022-07-31T13:11:07.546Z,5.10
2022-07-31T13:13:35.278Z,5.20
2022-07-31T13:16:02.209Z,4.65
2022-07-31T13:18:30.152Z,4.93
2022-07-31T13:21:00.742Z,4.05
2022-07-31T13:23:28.044Z,3.65
2022-07-31T13:25:54.933Z,3.20
2022-07-31T13:28:21.852Z,3.58
2022-07-31T13:30:54.695Z,2.78
2022-07-31T13:33:23.370Z,2.70
2022-07-31T13:35:50.206Z,2.75
2022-07-31T13:38:18.194Z,3.00
2022-07-31T13:41:03.947Z,2.95
2022-07-31T13:43:30.867Z,2.63
2022-07-31T13:46:00.514Z,3.05
2022-07-31T13:48:27.894Z,2.38
2022-07-31T13:50:55.081Z,2.40
2022-07-31T13:53:22.003Z,2.65
2022-07-31T13:55:50.319Z,2.55
2022-07-31T13:58:17.874Z,2.60
2022-07-31T14:00:45.179Z,2.55
2022-07-31T14:03:12.952Z,2.55
2022-07-31T14:05:45.418Z,3.28
2022-07-31T14:08:33.248Z,4.32
2022-07-31T14:11:03.042Z,4.50
2022-07-31T14:13:30.166Z,4.35
2022-07-31T14:15:58.045Z,5.10
2022-07-31T14:18:24.810Z,4.82
2022-07-31T14:20:52.279Z,4.97
2022-07-31T14:23:19.653Z,5.20
2022-07-31T14:25:47.074Z,5.50
2022-07-31T14:28:14.213Z,5.18
2022-07-31T14:30:46.617Z,4.97
2022-07-31T14:33:16.915Z,6.13
2022-07-31T14:35:43.595Z,5.72
2022-07-31T14:38:10.619Z,5.38
2022-07-31T14:40:37.600Z,5.68
2022-07-31T14:43:04.565Z,5.28
2022-07-31T14:45:31.384Z,5.28
2022-07-31T14:48:07.852Z,5.38
2022-07-31T14:50:37.713Z,4.45
2022-07-31T14:53:04.835Z,4.35
2022-07-31T14:55:31.916Z,3.92
2022-07-31T14:58:00.137Z,2.97
2022-07-31T15:00:27.426Z,4.03
2022-07-31T15:02:54.512Z,3.50
2022-07-31T15:06:48.835Z,3.65
2022-07-31T15:08:09.362Z,3.75
2022-07-31T15:10:36.224Z,3.55
2022-07-31T15:13:03.123Z,3.33
2022-07-31T15:15:30.030Z,3.88
2022-07-31T15:18:00.698Z,3.15
2022-07-31T15:20:32.842Z,3.17
2022-07-31T15:23:00.243Z,3.40
2022-07-31T15:25:27.065Z,3.10
2022-07-31T15:27:53.841Z,3.30
2022-07-31T15:30:21.580Z,3.42
2022-07-31T15:32:49.023Z,4.35
2022-07-31T15:35:15.971Z,5.78
2022-07-31T15:37:46.223Z,5.18
2022-07-31T15:40:15.366Z,4.20
2022-07-31T15:42:43.837Z,3.67
2022-07-31T15:45:13.433Z,4.57
2022-07-31T15:47:44.381Z,4.57
2022-07-31T15:50:13.903Z,4.50
2022-07-31T15:52:41.459Z,5.15
2022-07-31T15:55:09.531Z,5.87
2022-07-31T15:57:36.597Z,5.80
2022-07-31T16:00:05.535Z,6.00
2022-07-31T16:02:32.643Z,6.60
2022-07-31T16:05:02.637Z,6.70
2022-07-31T16:08:28.799Z,7.03
2022-07-31T16:10:25.812Z,6.50
2022-07-31T16:12:52.721Z,6.93
2022-07-31T16:15:20.515Z,6.20
2022-07-31T16:17:48.273Z,5.20
2022-07-31T16:20:20.638Z,4.90
2022-07-31T16:22:56.858Z,4.50
2022-07-31T16:25:26.939Z,5.10
2022-07-31T16:27:54.319Z,4.73
2022-07-31T16:30:22.489Z,4.73
2022-07-31T16:32:50.065Z,5.23
2022-07-31T16:35:17.477Z,5.90
2022-07-31T16:37:52.687Z,6.50
2022-07-31T16:40:30.315Z,6.40
2022-07-31T16:43:03.650Z,5.17
2022-07-31T16:45:50.246Z,4.97
2022-07-31T16:48:17.063Z,4.70
2022-07-31T16:50:43.807Z,4.87
2022-07-31T16:53:13.604Z,4.50
2022-07-31T16:56:01.470Z,4.67
2022-07-31T16:58:29.321Z,4.23
2022-07-31T17:00:56.578Z,4.17
2022-07-31T17:03:58.686Z,4.93
2022-07-31T17:06:11.601Z,4.20
2022-07-31T17:08:39.410Z,4.30
2022-07-31T17:11:07.587Z,4.77
2022-07-31T17:13:34.375Z,4.67
2022-07-31T17:16:01.132Z,4.50
2022-07-31T17:18:27.925Z,4.60
2022-07-31T17:20:55.818Z,5.20
2022-07-31T17:23:43.109Z,4.50
2022-07-31T17:26:20.757Z,4.50
2022-07-31T17:28:49.274Z,4.27
2022-07-31T17:31:16.217Z,4.73
2022-07-31T17:33:58.414Z,4.57
2022-07-31T17:36:29.285Z,4.47
2022-07-31T17:38:57.174Z,4.60
2022-07-31T17:41:24.618Z,4.30
2022-07-31T17:43:54.094Z,4.90
2022-07-31T17:46:28.188Z,5.00
2022-07-31T17:49:02.002Z,4.67
2022-07-31T17:51:28.850Z,4.83
2022-07-31T17:53:59.218Z,4.83
2022-07-31T17:56:27.853Z,4.70
2022-07-31T17:58:55.840Z,5.20
2022-07-31T18:01:28.467Z,5.00
2022-07-31T18:03:55.854Z,4.80
2022-07-31T18:06:22.699Z,4.67
2022-07-31T18:08:49.465Z,4.27
2022-07-31T18:11:16.287Z,4.27
2022-07-31T18:13:48.826Z,4.33
2022-07-31T18:16:19.280Z,4.20
2022-07-31T18:18:46.383Z,3.93
2022-07-31T18:21:14.476Z,4.27
2022-07-31T18:23:47.271Z,4.00
2022-07-31T18:26:14.569Z,3.57
2022-07-31T18:28:44.367Z,4.23
2022-07-31T18:31:24.181Z,4.07
2022-07-31T18:33:57.845Z,3.90
2022-07-31T18:36:24.636Z,4.40
2022-07-31T18:38:54.117Z,4.00
2022-07-31T18:41:23.241Z,3.83
2022-07-31T18:43:50.313Z,4.17
2022-07-31T18:46:17.167Z,4.23
2022-07-31T18:48:43.974Z,4.20
2022-07-31T18:51:10.797Z,4.50
2022-07-31T18:53:37.659Z,4.53
2022-07-31T18:56:04.593Z,4.63
2022-07-31T18:58:31.390Z,4.50
2022-07-31T19:01:01.247Z,4.93
2022-07-31T19:03:30.746Z,4.37
2022-07-31T19:05:58.599Z,5.27
2022-07-31T19:08:25.427Z,4.87
2022-07-31T19:10:53.635Z,5.33
2022-07-31T19:13:21.788Z,5.57
2022-07-31T19:15:50.704Z,5.13
2022-07-31T19:18:17.847Z,5.13
2022-07-31T19:21:00.074Z,4.97
2022-07-31T19:23:38.561Z,5.97
2022-07-31T19:26:05.555Z,5.47
2022-07-31T19:28:32.874Z,5.80
2022-07-31T19:30:59.638Z,4.97
2022-07-31T19:33:26.561Z,5.60
2022-07-31T19:36:00.351Z,5.80
2022-07-31T19:38:29.327Z,5.57
2022-07-31T19:40:56.099Z,5.50
2022-07-31T19:43:22.882Z,6.07
2022-07-31T19:45:58.834Z,5.90
2022-07-31T19:48:37.002Z,5.70
2022-07-31T19:51:05.970Z,5.97
2022-07-31T19:53:32.902Z,6.00
2022-07-31T19:56:02.133Z,5.10
2022-07-31T19:58:28.905Z,6.57
2022-07-31T20:00:55.692Z,6.20
2022-07-31T20:03:22.573Z,6.10
2022-07-31T20:05:49.370Z,6.07
2022-07-31T20:08:16.055Z,6.10
2022-07-31T20:10:42.869Z,6.67
2022-07-31T20:13:09.815Z,6.33
2022-07-31T20:15:51.267Z,6.93
2022-07-31T20:18:30.708Z,7.40
2022-07-31T20:21:05.447Z,6.63
2022-07-31T20:23:34.260Z,7.07
2022-07-31T20:26:01.494Z,6.87
2022-07-31T20:28:28.391Z,6.20
2022-07-31T20:30:55.136Z,6.23
2022-07-31T20:33:21.985Z,7.07
2022-07-31T20:35:50.586Z,6.53
2022-07-31T20:38:22.015Z,6.53
2022-07-31T20:40:54.225Z,6.33
2022-07-31T20:43:27.118Z,6.30
2022-07-31T20:45:57.424Z,6.30
2022-07-31T20:48:35.274Z,6.77
2022-07-31T20:51:03.830Z,6.90
2022-07-31T20:53:31.118Z,7.13
2022-07-31T20:55:58.612Z,7.57
2022-07-31T20:58:26.397Z,7.53
2022-07-31T21:00:53.541Z,6.90
2022-07-31T21:03:20.702Z,8.10
2022-07-31T21:05:47.962Z,7.83
2022-07-31T21:08:15.380Z,7.70
2022-07-31T21:10:42.213Z,9.13
2022-07-31T21:13:09.474Z,9.23
2022-07-31T21:15:43.359Z,8.30
2022-07-31T21:18:16.628Z,9.20
2022-07-31T21:20:51.040Z,9.00
2022-07-31T21:23:24.240Z,8.73
2022-07-31T21:25:53.117Z,9.47
2022-07-31T21:28:20.748Z,9.97
2022-07-31T21:30:47.794Z,9.07
2022-07-31T21:33:15.148Z,10.13
2022-07-31T21:35:42.317Z,10.40
2022-07-31T21:38:14.672Z,9.87
2022-07-31T21:40:41.545Z,10.50
2022-07-31T21:43:09.604Z,10.60
2022-07-31T21:45:50.655Z,11.13
2022-07-31T21:48:25.283Z,10.93
2022-07-31T21:50:54.854Z,12.37
2022-07-31T21:53:24.899Z,11.57
2022-07-31T21:55:52.032Z,12.73
2022-07-31T21:58:19.242Z,13.13
2022-07-31T22:00:46.517Z,12.97
2022-07-31T22:03:13.401Z,12.73
2022-07-31T22:05:59.245Z,13.13
2022-07-31T22:08:25.945Z,13.10
2022-07-31T22:10:52.775Z,13.57
2022-07-31T22:13:20.334Z,14.07
2022-07-31T22:15:59.294Z,14.07
2022-07-31T22:18:32.500Z,13.37
2022-07-31T22:21:01.213Z,13.47
2022-07-31T22:23:28.798Z,13.17
2022-07-31T22:25:55.922Z,13.57
2022-07-31T22:28:24.115Z,12.77
2022-07-31T22:30:51.963Z,12.03
2022-07-31T22:33:19.780Z,13.20
2022-07-31T22:35:59.354Z,11.87
2022-07-31T22:38:27.920Z,12.83
2022-07-31T22:40:55.069Z,13.30
2022-07-31T22:44:12.036Z,12.70
2022-07-31T22:46:11.915Z,12.53
2022-07-31T22:48:40.563Z,12.80
2022-07-31T22:51:08.002Z,13.37
2022-07-31T22:53:35.110Z,13.17
2022-07-31T22:56:01.916Z,13.50
2022-07-31T22:58:28.639Z,11.70
2022-07-31T23:00:56.354Z,11.83
2022-07-31T23:03:23.089Z,12.23
2022-07-31T23:06:28.111Z,11.20
2022-07-31T23:08:36.935Z,11.67
2022-07-31T23:11:03.824Z,12.30
2022-07-31T23:13:30.539Z,12.40
2022-07-31T23:15:57.316Z,13.27
2022-07-31T23:18:26.539Z,14.67
2022-07-31T23:20:53.336Z,13.37
2022-07-31T23:23:20.072Z,12.73
2022-07-31T23:25:46.823Z,13.70
2022-07-31T23:28:15.376Z,12.73
2022-07-31T23:30:42.245Z,12.43
2022-07-31T23:33:08.962Z,11.83
2022-07-31T23:35:35.711Z,11.93
2022-07-31T23:38:02.483Z,13.03
2022-07-31T23:40:29.302Z,11.83
2022-07-31T23:42:56.026Z,11.97
2022-07-31T23:45:23.564Z,12.93
2022-07-31T23:47:50.889Z,12.87
2022-07-31T23:50:17.928Z,12.00
2022-07-31T23:52:44.729Z,10.07
2022-07-31T23:55:12.090Z,9.37
2022-07-31T23:57:39.976Z,7.90
